createdAt,value
2022-09-21T00:01:58.552Z,7.04
2022-09-21T00:04:00.168Z,7.04
2022-09-21T00:06:01.872Z,7.07
2022-09-21T00:08:03.119Z,6.86
2022-09-21T00:10:04.352Z,6.8
2022-09-21T00:12:06.114Z,6.68
2022-09-21T00:14:07.262Z,6.63
2022-09-21T00:16:08.453Z,6.64
2022-09-21T00:17:19.415Z,6.65
2022-09-21T00:19:20.439Z,6.7
2022-09-21T00:21:21.899Z,6.76
2022-09-21T00:23:23.594Z,6.77
2022-09-21T00:25:25.332Z,6.8
2022-09-21T00:27:26.981Z,6.79
2022-09-21T00:29:28.676Z,6.82
2022-09-21T00:31:30.371Z,6.85
2022-09-21T00:33:32.158Z,6.83
2022-09-21T00:35:33.607Z,6.78
2022-09-21T00:37:34.574Z,6.75
2022-09-21T00:39:36.215Z,6.78
2022-09-21T00:41:37.446Z,6.76
2022-09-21T00:43:38.742Z,6.77
2022-09-21T00:45:39.830Z,6.64
2022-09-21T00:47:41.311Z,6.66
2022-09-21T00:49:43.207Z,6.6
2022-09-21T00:51:45.072Z,6.55
2022-09-21T00:53:46.518Z,6.55
2022-09-21T00:55:47.805Z,6.53
2022-09-21T00:57:49.203Z,6.52
2022-09-21T00:59:50.315Z,6.45
2022-09-21T01:01:51.871Z,6.49
2022-09-21T01:03:52.907Z,6.51
2022-09-21T01:05:54.544Z,6.4
2022-09-21T01:07:55.794Z,6.39
2022-09-21T01:09:57.728Z,6.42
2022-09-21T01:11:58.829Z,6.44
2022-09-21T01:14:00.707Z,6.4
2022-09-21T01:16:02.320Z,6.39
2022-09-21T01:18:03.568Z,6.32
2022-09-21T01:20:04.998Z,6.26
2022-09-21T01:22:06.718Z,6.16
2022-09-21T01:24:08.172Z,6.19
2022-09-21T01:26:09.545Z,6.1
2022-09-21T01:28:11.150Z,6.06
2022-09-21T01:30:12.416Z,6.03
2022-09-21T01:32:14.024Z,6.02
2022-09-21T01:34:15.943Z,5.91
2022-09-21T01:36:16.977Z,5.85
2022-09-21T01:40:19.928Z,5.8
2022-09-21T01:42:21.098Z,5.67
2022-09-21T01:44:22.676Z,5.68
2022-09-21T01:46:23.741Z,5.67
2022-09-21T01:48:25.332Z,5.7
2022-09-21T01:50:26.970Z,5.76
2022-09-21T01:52:28.370Z,5.78
2022-09-21T01:54:29.626Z,5.88
2022-09-21T01:56:31.190Z,5.97
2022-09-21T01:58:32.941Z,5.97
2022-09-21T02:00:34.579Z,5.89
2022-09-21T02:02:36.049Z,5.73
2022-09-21T02:04:37.397Z,5.57
2022-09-21T02:06:38.548Z,5.57
2022-09-21T02:08:40.179Z,5.56
2022-09-21T02:10:42.051Z,5.56
2022-09-21T02:12:43.786Z,5.54
2022-09-21T02:14:45.029Z,5.48
2022-09-21T02:16:46.632Z,5.6
2022-09-21T02:18:48.189Z,5.6
2022-09-21T02:20:50.120Z,5.58
2022-09-21T02:22:51.210Z,5.51
2022-09-21T02:24:53.009Z,5.52
2022-09-21T02:26:54.842Z,5.64
2022-09-21T02:28:56.088Z,5.53
2022-09-21T02:30:58.069Z,5.5
2022-09-21T02:32:59.903Z,5.42
2022-09-21T02:35:01.764Z,5.38
2022-09-21T02:37:02.842Z,5.31
2022-09-21T02:39:03.843Z,5.37
2022-09-21T02:41:05.538Z,5.42
2022-09-21T02:43:06.874Z,5.53
2022-09-21T02:45:08.296Z,5.42
2022-09-21T02:47:09.690Z,5.46
2022-09-21T02:49:11.495Z,5.5
2022-09-21T02:51:13.025Z,5.54
2022-09-21T02:53:14.183Z,5.57
2022-09-21T02:55:15.919Z,5.49
2022-09-21T02:57:17.230Z,5.4
2022-09-21T02:59:18.748Z,5.32
2022-09-21T03:01:19.980Z,5.28
2022-09-21T03:03:21.779Z,5.18
2022-09-21T03:05:23.013Z,5.18
2022-09-21T03:07:24.512Z,5.17
2022-09-21T03:09:25.887Z,5.11
2022-09-21T03:11:27.727Z,5.14
2022-09-21T03:13:29.535Z,5.19
2022-09-21T03:15:30.902Z,5.12
2022-09-21T03:17:32.324Z,5.1
2022-09-21T03:19:33.661Z,5.16
2022-09-21T03:21:35.548Z,5.09
2022-09-21T03:23:37.068Z,5.11
2022-09-21T03:25:38.562Z,5.16
2022-09-21T03:27:40.520Z,5.09
2022-09-21T03:29:42.485Z,5.06
2022-09-21T03:31:44.091Z,5.09
2022-09-21T03:33:45.212Z,5.07
2022-09-21T03:35:47.198Z,5.13
2022-09-21T03:37:48.430Z,5.06
2022-09-21T03:39:50.321Z,5.12
2022-09-21T03:41:51.703Z,5.11
2022-09-21T03:43:52.966Z,5.13
2022-09-21T03:45:54.214Z,5.12
2022-09-21T03:47:56.248Z,5.12
2022-09-21T03:49:57.240Z,5.1
2022-09-21T03:51:59.321Z,5.1
2022-09-21T03:54:01.156Z,5.06
2022-09-21T03:56:02.119Z,4.99
2022-09-21T03:58:03.126Z,4.94
2022-09-21T04:00:04.956Z,4.98
2022-09-21T04:02:06.389Z,4.94
2022-09-21T04:04:08.337Z,4.92
2022-09-21T04:06:09.312Z,4.92
2022-09-21T04:08:10.672Z,4.9
2022-09-21T04:10:12.036Z,4.81
2022-09-21T04:12:13.265Z,4.82
2022-09-21T04:14:14.840Z,4.8
2022-09-21T04:16:16.198Z,4.8
2022-09-21T04:18:17.876Z,4.8
2022-09-21T04:20:19.401Z,4.82
2022-09-21T04:22:21.131Z,4.83
2022-09-21T04:24:22.917Z,4.79
2022-09-21T04:26:24.415Z,4.79
2022-09-21T04:28:26.095Z,4.76
2022-09-21T04:30:27.743Z,4.59
2022-09-21T04:32:28.801Z,4.45
2022-09-21T04:34:30.612Z,4.43
2022-09-21T04:36:35.832Z,4.41
2022-09-21T04:38:33.191Z,4.45
2022-09-21T04:40:34.369Z,4.4
2022-09-21T04:42:36.210Z,4.36
2022-09-21T04:46:39.339Z,4.34
2022-09-21T04:48:40.874Z,4.35
2022-09-21T04:50:42.895Z,4.34
2022-09-21T04:52:44.160Z,4.28
2022-09-21T04:54:45.994Z,4.27
2022-09-21T04:56:47.569Z,4.28
2022-09-21T04:58:48.992Z,4.3
2022-09-21T05:00:50.915Z,4.29
2022-09-21T05:02:52.478Z,4.25
2022-09-21T05:04:53.403Z,4.21
2022-09-21T05:06:54.875Z,4.22
2022-09-21T05:08:56.570Z,4.13
2022-09-21T05:10:57.739Z,3.98
2022-09-21T05:12:59.151Z,4.06
2022-09-21T05:15:00.976Z,4.07
2022-09-21T05:17:02.182Z,4.07
2022-09-21T05:19:03.508Z,4.04
2022-09-21T05:21:04.577Z,4.05
2022-09-21T05:23:06.450Z,4.09
2022-09-21T05:25:08.087Z,4.05
2022-09-21T05:29:10.927Z,3.99
2022-09-21T05:31:16.995Z,3.94
2022-09-21T05:33:13.663Z,3.98
2022-09-21T05:35:14.843Z,4
2022-09-21T05:37:15.909Z,4.08
2022-09-21T05:39:17.383Z,4.04
2022-09-21T05:41:18.434Z,4.09
2022-09-21T05:43:20.305Z,4.15
2022-09-21T05:45:21.962Z,4.15
2022-09-21T05:47:23.406Z,4.13
2022-09-21T05:49:25.222Z,4.15
2022-09-21T05:51:27.215Z,4.07
2022-09-21T05:53:28.538Z,4.04
2022-09-21T05:55:30.018Z,4.14
2022-09-21T05:57:31.875Z,4.23
2022-09-21T06:01:35.565Z,4.24
2022-09-21T06:03:36.908Z,4.32
2022-09-21T06:05:38.787Z,4.26
2022-09-21T06:07:40.263Z,4.28
2022-09-21T06:09:43.250Z,4.45
2022-09-21T06:11:43.859Z,4.44
2022-09-21T06:13:45.651Z,4.39
2022-09-21T06:15:47.463Z,4.44
2022-09-21T06:17:48.837Z,4.53
2022-09-21T06:19:50.429Z,4.66
2022-09-21T06:21:51.952Z,4.62
2022-09-21T06:23:53.646Z,4.6
2022-09-21T06:25:58.404Z,4.67
2022-09-21T06:27:56.579Z,4.69
2022-09-21T06:29:57.649Z,4.68
2022-09-21T06:31:59.357Z,4.79
2022-09-21T06:34:01.101Z,4.9
2022-09-21T06:36:02.411Z,4.83
2022-09-21T06:38:03.380Z,4.88
2022-09-21T06:40:04.842Z,5.06
2022-09-21T06:44:08.147Z,5.1
2022-09-21T06:46:10.060Z,5.13
2022-09-21T06:48:11.369Z,5.19
2022-09-21T06:50:12.603Z,5.23
2022-09-21T06:52:13.887Z,5.17
2022-09-21T06:54:15.696Z,5.4
2022-09-21T06:56:16.894Z,5.49
2022-09-21T06:58:18.491Z,5.4
2022-09-21T07:00:20.473Z,5.36
2022-09-21T07:02:22.112Z,5.33
2022-09-21T07:05:06.990Z,5.24
2022-09-21T07:07:08.185Z,5.28
2022-09-21T07:11:11.536Z,5.3
2022-09-21T07:13:12.866Z,5.46
2022-09-21T07:15:14.006Z,5.66
2022-09-21T07:17:15.919Z,5.81
2022-09-21T07:19:17.298Z,5.65
2022-09-21T07:21:18.844Z,5.7
2022-09-21T07:23:20.713Z,6.06
2022-09-21T07:25:22.194Z,6.27
2022-09-21T07:27:23.748Z,6.45
2022-09-21T07:29:25.344Z,6.48
2022-09-21T07:31:26.371Z,6.45
2022-09-21T07:33:27.453Z,6.41
2022-09-21T07:35:29.210Z,6.01
2022-09-21T07:37:30.970Z,6.29
2022-09-21T07:39:32.691Z,6.34
2022-09-21T07:41:33.819Z,6.28
2022-09-21T07:43:35.421Z,6.51
2022-09-21T07:45:37.355Z,6.49
2022-09-21T07:47:38.513Z,6.4
2022-09-21T07:49:40.335Z,6.46
2022-09-21T07:51:41.644Z,6.69
2022-09-21T07:53:43.397Z,6.73
2022-09-21T07:55:44.835Z,6.74
2022-09-21T07:57:46.158Z,6.67
2022-09-21T07:59:47.756Z,6.8
2022-09-21T08:01:49.187Z,6.86
2022-09-21T08:03:50.853Z,6.27
2022-09-21T08:05:52.144Z,6.3
2022-09-21T08:07:53.800Z,6.53
2022-09-21T08:09:54.900Z,6.75
2022-09-21T08:11:56.353Z,6.57
2022-09-21T08:13:58.369Z,6.76
2022-09-21T08:15:59.644Z,6.98
2022-09-21T08:18:01.371Z,7.21
2022-09-21T08:20:02.527Z,7.23
2022-09-21T08:22:03.990Z,7.3
2022-09-21T08:24:05.425Z,7.73
2022-09-21T08:26:07.722Z,7.45
2022-09-21T08:28:09.928Z,7.54
2022-09-21T08:30:10.542Z,7.21
2022-09-21T08:32:22.988Z,7.58
2022-09-21T08:34:13.666Z,7.89
2022-09-21T08:36:15.419Z,7.88
2022-09-21T08:38:17.256Z,8.12
2022-09-21T08:40:18.548Z,7.86
2022-09-21T08:42:19.969Z,8.12
2022-09-21T08:44:22.375Z,7.83
2022-09-21T08:46:23.731Z,8.16
2022-09-21T08:48:29.233Z,8.02
2022-09-21T08:50:26.484Z,8.36
2022-09-21T08:52:28.397Z,8.57
2022-09-21T08:54:30.182Z,8.59
2022-09-21T08:56:47.339Z,8.63
2022-09-21T08:58:33.418Z,8.75
2022-09-21T09:00:35.094Z,8.5
2022-09-21T09:02:35.935Z,8.76
2022-09-21T09:04:36.912Z,8.91
2022-09-21T09:06:38.191Z,9.28
2022-09-21T09:08:39.324Z,9.79
2022-09-21T09:10:40.191Z,9.58
2022-09-21T09:12:41.606Z,9.63
2022-09-21T09:14:43.227Z,9.77
2022-09-21T09:16:44.386Z,9.95
2022-09-21T09:18:45.720Z,10.49
2022-09-21T09:20:47.229Z,11.5
2022-09-21T09:22:48.889Z,11.1
2022-09-21T09:24:50.229Z,10.71
2022-09-21T09:26:51.890Z,10.83
2022-09-21T09:28:53.461Z,10.95
2022-09-21T09:30:54.788Z,11.5
2022-09-21T09:32:56.437Z,12.39
2022-09-21T09:34:58.024Z,11.88
2022-09-21T09:36:59.694Z,12.48
2022-09-21T09:39:00.160Z,12.76
2022-09-21T09:41:01.083Z,12.62
2022-09-21T09:43:04.653Z,13.01
2022-09-21T09:45:03.713Z,12.84
2022-09-21T09:47:05.480Z,12.63
2022-09-21T09:49:07.397Z,11.89
2022-09-21T09:51:08.518Z,12.02
2022-09-21T09:53:09.770Z,11.79
2022-09-21T09:55:11.048Z,11.54
2022-09-21T09:57:12.056Z,11.43
2022-09-21T09:59:13.157Z,11.48
2022-09-21T10:01:14.913Z,11.39
2022-09-21T10:03:16.382Z,11.84
2022-09-21T10:05:18.181Z,11.88
2022-09-21T10:07:19.247Z,12.01
2022-09-21T10:09:20.596Z,12.35
2022-09-21T10:11:22.239Z,12.71
2022-09-21T10:13:23.642Z,12.54
2022-09-21T10:15:25.325Z,12.6
2022-09-21T10:17:26.604Z,12.91
2022-09-21T10:19:27.526Z,13.03
2022-09-21T10:21:28.637Z,13.41
2022-09-21T10:25:31.172Z,13.01
2022-09-21T10:27:32.473Z,13.36
2022-09-21T10:29:33.933Z,13.68
2022-09-21T10:31:35.071Z,13.78
2022-09-21T10:33:36.455Z,13.4
2022-09-21T10:35:38.061Z,13.52
2022-09-21T10:37:38.957Z,13.52
2022-09-21T10:39:40.228Z,13.83
2022-09-21T10:41:41.256Z,13.81
2022-09-21T10:43:43.443Z,13.85
2022-09-21T10:45:43.609Z,14.14
2022-09-21T10:47:44.934Z,14.19
2022-09-21T10:49:46.311Z,14.45
2022-09-21T10:51:47.157Z,14.85
2022-09-21T10:53:50.979Z,14.28
2022-09-21T10:56:04.671Z,14.38
2022-09-21T10:57:52.101Z,14.49
2022-09-21T10:59:53.404Z,14
2022-09-21T11:01:55.311Z,13.87
2022-09-21T11:03:56.555Z,14.04
2022-09-21T11:05:58.012Z,14.24
2022-09-21T11:07:59.853Z,14.73
2022-09-21T11:10:01.891Z,14.29
2022-09-21T11:12:02.790Z,14.64
2022-09-21T11:14:03.987Z,14.45
2022-09-21T11:16:05.231Z,14.79
2022-09-21T11:18:06.331Z,14.78
2022-09-21T11:20:07.386Z,14.95
2022-09-21T11:22:08.722Z,14.67
2022-09-21T11:24:10.288Z,14.15
2022-09-21T11:26:11.725Z,14.15
2022-09-21T11:28:13.478Z,14.54
2022-09-21T11:30:15.237Z,14.24
2022-09-21T11:32:16.445Z,14.76
2022-09-21T11:34:18.245Z,14.29
2022-09-21T11:36:20.141Z,14.36
2022-09-21T11:38:20.981Z,14.79
2022-09-21T11:40:22.475Z,14.85
2022-09-21T11:42:23.628Z,15.03
2022-09-21T11:44:24.931Z,15.58
2022-09-21T11:46:26.146Z,15.15
2022-09-21T11:48:27.478Z,15.33
2022-09-21T11:50:30.817Z,15.07
2022-09-21T11:52:29.590Z,15.13
2022-09-21T11:54:30.959Z,15.52
2022-09-21T11:56:32.438Z,15.31
2022-09-21T11:58:33.410Z,15.3
2022-09-21T12:00:34.774Z,15.56
2022-09-21T12:02:36.491Z,14.81
2022-09-21T12:04:37.948Z,15.65
2022-09-21T12:08:39.933Z,15.54
2022-09-21T12:10:41.539Z,15.23
2022-09-21T12:12:42.805Z,15.26
2022-09-21T12:14:43.748Z,15.29
2022-09-21T12:16:45.504Z,15.38
2022-09-21T12:18:47.085Z,15.58
2022-09-21T12:20:48.869Z,16.04
2022-09-21T12:22:50.168Z,16.09
2022-09-21T12:24:51.426Z,16.08
2022-09-21T12:26:52.922Z,16.05
2022-09-21T12:28:54.156Z,16.04
2022-09-21T12:30:58.502Z,15.76
2022-09-21T12:32:56.593Z,15.88
2022-09-21T12:34:57.510Z,15.72
2022-09-21T12:36:59.301Z,16.08
2022-09-21T12:39:00.977Z,15.48
2022-09-21T12:41:02.576Z,15.7
2022-09-21T12:43:04.127Z,15.91
2022-09-21T12:45:05.933Z,15.56
2022-09-21T12:47:07.067Z,15.85
2022-09-21T12:51:09.288Z,15.88
2022-09-21T12:53:10.537Z,15.76
2022-09-21T12:55:13.050Z,15.95
2022-09-21T12:57:30.363Z,16.37
2022-09-21T12:59:14.548Z,16.12
2022-09-21T13:01:16.390Z,16.34
2022-09-21T13:03:17.825Z,16.43
2022-09-21T13:05:19.351Z,16.04
2022-09-21T13:07:20.357Z,15.47
2022-09-21T13:09:22.114Z,15.97
2022-09-21T13:11:23.194Z,16.28
2022-09-21T13:13:24.725Z,16.23
2022-09-21T13:15:26.095Z,16.26
2022-09-21T13:17:27.744Z,16.48
2022-09-21T13:19:28.759Z,16.54
2022-09-21T13:21:29.625Z,16.26
2022-09-21T13:23:31.261Z,15.65
2022-09-21T13:25:32.470Z,15.21
2022-09-21T13:27:33.823Z,15.01
2022-09-21T13:29:35.514Z,14.83
2022-09-21T13:31:40.666Z,14.73
2022-09-21T13:33:39.111Z,15.15
2022-09-21T13:35:40.230Z,15.53
2022-09-21T13:37:41.057Z,16.29
2022-09-21T13:39:42.530Z,16.44
2022-09-21T13:43:45.283Z,15.66
2022-09-21T13:45:46.648Z,15.58
2022-09-21T13:47:47.963Z,15.97
2022-09-21T13:50:32.926Z,15.87
2022-09-21T13:52:33.868Z,15.79
2022-09-21T13:54:35.346Z,16.1
2022-09-21T13:56:36.939Z,16.11
2022-09-21T13:58:38.290Z,16.09
2022-09-21T14:00:39.485Z,16.47
2022-09-21T14:02:40.726Z,16.59
2022-09-21T14:04:42.489Z,16.75
2022-09-21T14:06:43.463Z,16.3
2022-09-21T14:08:47.344Z,15.92
2022-09-21T14:10:45.564Z,15.82
2022-09-21T14:12:46.518Z,16.17
2022-09-21T14:14:48.349Z,16.47
2022-09-21T14:16:51.609Z,16.87
2022-09-21T14:18:50.861Z,16.4
2022-09-21T14:20:52.408Z,16.46
2022-09-21T14:22:53.481Z,16.59
2022-09-21T14:24:55.140Z,16.75
2022-09-21T14:26:56.971Z,16.98
2022-09-21T14:28:58.141Z,16.91
2022-09-21T14:30:59.815Z,17.22
2022-09-21T14:33:01.511Z,17.54
2022-09-21T14:35:02.633Z,16.9
2022-09-21T14:37:04.347Z,16.82
2022-09-21T14:39:05.693Z,16.65
2022-09-21T14:41:07.069Z,16.26
2022-09-21T14:43:08.801Z,16.52
2022-09-21T14:45:09.811Z,16.83
2022-09-21T14:47:11.360Z,16.71
2022-09-21T14:49:12.602Z,17.11
2022-09-21T14:51:13.692Z,16.93
2022-09-21T14:53:14.653Z,16.96
2022-09-21T14:55:15.912Z,16.42
2022-09-21T14:57:16.771Z,16.89
2022-09-21T14:59:17.657Z,16.87
2022-09-21T15:01:18.970Z,16.04
2022-09-21T15:03:20.587Z,15.8
2022-09-21T15:05:21.469Z,16.03
2022-09-21T15:07:23.253Z,16.17
2022-09-21T15:09:24.182Z,16.14
2022-09-21T15:11:25.646Z,16.1
2022-09-21T15:13:26.514Z,15.47
2022-09-21T15:15:28.314Z,15.3
2022-09-21T15:17:29.480Z,15.84
2022-09-21T15:19:30.585Z,15.79
2022-09-21T15:21:31.715Z,15.97
2022-09-21T15:23:33.191Z,16.17
2022-09-21T15:25:34.682Z,16.17
2022-09-21T15:27:36.147Z,16.06
2022-09-21T15:29:37.530Z,16.02
2022-09-21T15:31:39.064Z,15.91
2022-09-21T15:33:40.589Z,15.96
2022-09-21T15:35:41.825Z,15.96
2022-09-21T15:37:43.088Z,16.19
2022-09-21T15:39:44.060Z,16.16
2022-09-21T15:41:45.551Z,16.07
2022-09-21T15:43:46.442Z,15.87
2022-09-21T15:45:47.342Z,15.88
2022-09-21T15:47:48.471Z,15.91
2022-09-21T15:49:49.306Z,16.06
2022-09-21T15:51:51.381Z,15.89
2022-09-21T15:53:52.299Z,16.01
2022-09-21T15:55:54.043Z,16.06
2022-09-21T15:57:55.875Z,15.87
2022-09-21T15:59:56.830Z,15.8
2022-09-21T16:01:58.216Z,15.69
2022-09-21T16:03:59.573Z,15.81
2022-09-21T16:06:00.922Z,15.76
2022-09-21T16:08:02.704Z,15.62
2022-09-21T16:10:04.125Z,15.61
2022-09-21T16:12:05.677Z,15.86
2022-09-21T16:14:06.729Z,15.87
2022-09-21T16:16:08.575Z,15.64
2022-09-21T16:18:09.928Z,15.57
2022-09-21T16:20:10.957Z,15.5
2022-09-21T16:22:12.527Z,15.43
2022-09-21T16:24:14.194Z,15.4
2022-09-21T16:26:15.637Z,15.58
2022-09-21T16:28:16.890Z,15.49
2022-09-21T16:30:18.651Z,15.35
2022-09-21T16:32:20.128Z,15.15
2022-09-21T16:34:21.065Z,15.31
2022-09-21T16:36:22.851Z,15.25
2022-09-21T16:38:24.071Z,15.09
2022-09-21T16:40:25.921Z,15.2
2022-09-21T16:42:27.505Z,15.34
2022-09-21T16:44:28.660Z,15.54
2022-09-21T16:46:30.175Z,15.83
2022-09-21T16:48:31.933Z,15.3
2022-09-21T16:50:33.542Z,15.58
2022-09-21T16:52:34.574Z,15.98
2022-09-21T16:54:36.195Z,15.91
2022-09-21T16:56:37.067Z,15.69
2022-09-21T16:58:37.934Z,15.23
2022-09-21T17:00:39.603Z,14.71
2022-09-21T17:02:41.034Z,14.24
2022-09-21T17:04:41.940Z,13.94
2022-09-21T17:06:43.279Z,13.73
2022-09-21T17:08:44.263Z,13.54
2022-09-21T17:10:46.027Z,13.29
2022-09-21T17:12:47.285Z,12.91
2022-09-21T17:14:48.645Z,12.58
2022-09-21T17:16:50.307Z,12.37
2022-09-21T17:18:51.567Z,12.15
2022-09-21T17:20:53.012Z,11.89
2022-09-21T17:22:54.367Z,11.65
2022-09-21T17:24:56.272Z,11.33
2022-09-21T17:26:57.613Z,11.36
2022-09-21T17:28:58.601Z,11.34
2022-09-21T17:31:00.135Z,11.29
2022-09-21T17:33:01.591Z,11.07
2022-09-21T17:35:03.008Z,11.02
2022-09-21T17:37:04.545Z,10.94
2022-09-21T17:39:05.726Z,10.92
2022-09-21T17:41:07.148Z,10.93
2022-09-21T17:43:08.709Z,10.83
2022-09-21T17:45:09.797Z,10.6
2022-09-21T17:47:10.906Z,10.37
2022-09-21T17:49:12.002Z,10.23
2022-09-21T17:51:13.847Z,10.08
2022-09-21T17:53:14.829Z,10.01
2022-09-21T17:55:15.843Z,9.85
2022-09-21T17:57:17.571Z,9.79
2022-09-21T17:59:18.910Z,9.81
2022-09-21T18:01:20.201Z,10.03
2022-09-21T18:03:21.127Z,10.03
2022-09-21T18:05:22.838Z,9.97
2022-09-21T18:07:24.282Z,9.78
2022-09-21T18:09:26.156Z,9.59
2022-09-21T18:11:27.408Z,9.73
2022-09-21T18:13:29.217Z,9.81
2022-09-21T18:15:30.348Z,9.87
2022-09-21T18:17:31.709Z,9.79
2022-09-21T18:19:33.015Z,9.56
2022-09-21T18:21:34.349Z,9.35
2022-09-21T18:23:35.546Z,9.21
2022-09-21T18:25:36.852Z,9.19
2022-09-21T18:27:38.626Z,9.14
2022-09-21T18:31:41.222Z,8.85
2022-09-21T18:33:43.210Z,8.79
2022-09-21T18:35:44.999Z,8.68
2022-09-21T18:37:46.744Z,8.71
2022-09-21T18:39:47.824Z,8.63
2022-09-21T18:41:49.525Z,8.63
2022-09-21T18:43:51.233Z,8.52
2022-09-21T18:45:53.152Z,8.35
2022-09-21T18:47:54.988Z,8.3
2022-09-21T18:49:56.390Z,8.13
2022-09-21T18:51:57.902Z,7.97
2022-09-21T18:53:59.020Z,7.83
2022-09-21T18:55:59.927Z,7.73
2022-09-21T18:58:01.134Z,7.62
2022-09-21T19:00:02.829Z,7.67
2022-09-21T19:02:04.353Z,7.58
2022-09-21T19:04:05.960Z,7.53
2022-09-21T19:06:07.374Z,7.67
2022-09-21T19:08:08.598Z,7.79
2022-09-21T19:10:10.441Z,7.79
2022-09-21T19:14:13.912Z,7.84
2022-09-21T19:16:15.908Z,7.78
2022-09-21T19:18:17.028Z,7.8
2022-09-21T19:20:21.978Z,7.79
2022-09-21T19:22:19.931Z,7.79
2022-09-21T19:24:20.858Z,7.76
2022-09-21T19:26:22.776Z,7.68
2022-09-21T19:28:24.470Z,7.7
2022-09-21T19:30:26.655Z,7.68
2022-09-21T19:32:27.855Z,7.64
2022-09-21T19:34:29.444Z,7.54
2022-09-21T19:36:30.418Z,7.51
2022-09-21T19:38:32.068Z,7.39
2022-09-21T19:40:33.628Z,7.3
2022-09-21T19:42:34.555Z,7.24
2022-09-21T19:44:36.349Z,7.16
2022-09-21T19:46:37.788Z,7.07
2022-09-21T19:48:39.511Z,6.97
2022-09-21T19:50:41.279Z,6.81
2022-09-21T19:52:42.460Z,6.72
2022-09-21T19:56:44.958Z,6.7
2022-09-21T19:58:46.614Z,6.83
2022-09-21T20:00:47.977Z,6.95
2022-09-21T20:02:49.688Z,6.91
2022-09-21T20:04:50.638Z,6.89
2022-09-21T20:06:52.098Z,6.75
2022-09-21T20:08:53.651Z,6.65
2022-09-21T20:10:54.910Z,6.52
2022-09-21T20:12:56.535Z,6.42
2022-09-21T20:14:57.558Z,6.31
2022-09-21T20:16:59.429Z,6.27
2022-09-21T20:19:00.501Z,6.11
2022-09-21T20:21:01.474Z,5.99
2022-09-21T20:23:03.460Z,5.85
2022-09-21T20:25:04.475Z,5.76
2022-09-21T20:27:06.498Z,5.67
2022-09-21T20:29:07.916Z,5.73
2022-09-21T20:31:09.953Z,5.68
2022-09-21T20:33:10.989Z,5.62
2022-09-21T20:34:21.086Z,5.67
2022-09-21T20:36:22.694Z,6.02
2022-09-21T20:38:24.302Z,6.01
2022-09-21T20:40:25.753Z,6.03
2022-09-21T20:42:26.998Z,6.03
2022-09-21T20:44:28.509Z,6.16
2022-09-21T20:46:30.280Z,6.16
2022-09-21T20:48:31.510Z,6.19
2022-09-21T20:50:33.369Z,6.18
2022-09-21T20:52:34.783Z,6.24
2022-09-21T20:54:36.683Z,6.23
2022-09-21T20:56:38.063Z,6.08
2022-09-21T20:58:39.729Z,5.99
2022-09-21T21:00:40.772Z,5.89
2022-09-21T21:02:42.398Z,5.83
2022-09-21T21:04:44.047Z,5.82
2022-09-21T21:06:45.538Z,5.81
2022-09-21T21:08:46.820Z,5.83
2022-09-21T21:10:48.725Z,5.82
2022-09-21T21:12:50.675Z,5.76
2022-09-21T21:14:51.744Z,5.7
2022-09-21T21:16:53.833Z,5.72
2022-09-21T21:18:54.820Z,5.77
2022-09-21T21:20:56.318Z,5.74
2022-09-21T21:22:58.240Z,5.73
2022-09-21T21:24:59.566Z,5.74
2022-09-21T21:27:02.751Z,5.74
2022-09-21T21:29:02.811Z,5.68
2022-09-21T21:31:04.207Z,5.73
2022-09-21T21:33:06.101Z,5.66
2022-09-21T21:35:07.905Z,5.54
2022-09-21T21:37:09.218Z,5.39
2022-09-21T21:39:10.851Z,5.43
2022-09-21T21:43:13.879Z,5.42
2022-09-21T21:45:15.646Z,5.45
2022-09-21T21:47:35.020Z,5.51
2022-09-21T21:49:18.755Z,5.47
2022-09-21T21:51:20.270Z,5.35
2022-09-21T21:53:21.764Z,5.23
2022-09-21T21:55:23.607Z,5.27
2022-09-21T21:57:24.688Z,5.29
2022-09-21T21:59:25.812Z,5.26
2022-09-21T22:01:27.766Z,5.17
2022-09-21T22:03:28.900Z,5.04
2022-09-21T22:05:30.778Z,5.09
2022-09-21T22:07:32.335Z,5.05
2022-09-21T22:09:33.383Z,5.04
2022-09-21T22:11:35.152Z,5
2022-09-21T22:13:36.978Z,5.07
2022-09-21T22:15:38.722Z,5.1
2022-09-21T22:17:40.352Z,5.13
2022-09-21T22:19:41.838Z,5.06
2022-09-21T22:21:43.483Z,5.11
2022-09-21T22:25:46.123Z,4.95
2022-09-21T22:27:47.979Z,4.82
2022-09-21T22:29:49.400Z,4.8
2022-09-21T22:31:50.979Z,4.74
2022-09-21T22:33:52.719Z,4.77
2022-09-21T22:35:54.593Z,4.82
2022-09-21T22:37:56.113Z,4.8
2022-09-21T22:39:58.096Z,4.83
2022-09-21T22:42:00.025Z,4.79
2022-09-21T22:44:01.241Z,4.78
2022-09-21T22:46:02.714Z,4.7
2022-09-21T22:48:03.772Z,4.74
2022-09-21T22:50:05.345Z,4.75
2022-09-21T22:52:06.958Z,4.75
2022-09-21T22:54:08.111Z,4.7
2022-09-21T22:56:09.389Z,4.59
2022-09-21T22:58:10.949Z,4.52
2022-09-21T23:00:12.211Z,4.41
2022-09-21T23:02:13.502Z,4.57
2022-09-21T23:04:15.301Z,4.66
2022-09-21T23:08:18.668Z,4.6
2022-09-21T23:10:20.478Z,4.59
2022-09-21T23:12:21.955Z,4.56
2022-09-21T23:14:23.902Z,4.59
2022-09-21T23:16:25.296Z,4.54
2022-09-21T23:18:26.905Z,4.51
2022-09-21T23:20:28.238Z,4.51
2022-09-21T23:22:29.746Z,4.52
2022-09-21T23:24:31.327Z,4.53
2022-09-21T23:26:33.180Z,4.54
2022-09-21T23:28:35.113Z,4.48
2022-09-21T23:30:36.206Z,4.4
2022-09-21T23:32:37.733Z,4.29
2022-09-21T23:34:39.061Z,4.12
2022-09-21T23:36:40.820Z,3.96
2022-09-21T23:38:41.886Z,3.85
2022-09-21T23:40:43.931Z,3.85
2022-09-21T23:42:45.051Z,3.92
2022-09-21T23:44:46.751Z,3.93
2022-09-21T23:46:48.575Z,3.97
2022-09-21T23:48:49.676Z,3.99
2022-09-21T23:50:51.239Z,4.02
2022-09-21T23:52:52.592Z,4.06
2022-09-21T23:54:53.629Z,4.15
2022-09-21T23:56:55.381Z,4.27
2022-09-21T23:58:56.600Z,4.22
